Terminal Aerodrome Forecast
Issued by NWS Sioux Falls, SD

Home | Current Version | Previous Version | Graphics & Text | Print | Product List | Glossary On
Versions: 1 2 3 4 5 6 7 8 9 10 11 12 13 14 15 16 17 18 19 20 21 22 23
000
FTUS43 KFSD 312333
TAFFSD
TAF
KFSD 312333Z 0100/0124 05017KT 3/4SM -SN BR SCT008 OVC015
     FM010300 03018G26KT 3/4SM -SN BR OVC008
     FM011200 36018G26KT 1 1/2SM -SN OVC008
     FM012000 35017G24KT P6SM SCT020 BKN050=

USA.gov is the U.S. government's official web portal to all federal, state and local government web resources and services.